Time;durP1;ratioP1;P1;durP2;ratioP2;P2;SDS_P1;SDS_P2;PMS_P1;PMS_P2;Temp;Humidity;BMP_temperature;BMP_pressure;BME280_temperature;BME280_humidity;BME280_pressure;Samples;Min_cycle;Max_cycle;Signal;HPM_P1;HPM_P2
2023/04/25 00:00:31;;;;;;;15.45;6.13;;;;;;;5.60;100.00;101098.38;5106048;28;20032;-75
2023/04/25 00:02:56;;;;;;;14.43;6.28;;;;;;;5.58;100.00;101103.50;5097002;28;20146;-74
2023/04/25 00:05:23;;;;;;;16.20;6.15;;;;;;;5.58;100.00;101100.06;5093270;28;20024;-75
2023/04/25 00:07:49;;;;;;;15.68;5.80;;;;;;;5.59;100.00;101104.38;5092823;28;20024;-74
2023/04/25 00:10:15;;;;;;;19.13;6.75;;;;;;;5.63;100.00;101109.56;5099932;28;20031;-74
2023/04/25 00:12:41;;;;;;;14.85;5.95;;;;;;;5.59;100.00;101109.53;5099358;28;20044;-74
2023/04/25 00:15:06;;;;;;;17.25;6.10;;;;;;;5.49;100.00;101118.16;5092954;28;20020;-75
2023/04/25 00:17:32;;;;;;;18.05;5.68;;;;;;;5.39;100.00;101125.03;5092205;28;20080;-75
2023/04/25 00:19:58;;;;;;;14.38;5.65;;;;;;;5.29;100.00;101126.72;5103771;28;20039;-75
2023/04/25 00:22:23;;;;;;;16.17;6.50;;;;;;;5.19;100.00;101121.53;5092840;28;20057;-75
2023/04/25 00:24:48;;;;;;;18.73;5.70;;;;;;;5.08;100.00;101131.84;5097536;28;20027;-75
2023/04/25 00:27:14;;;;;;;16.80;5.93;;;;;;;5.01;100.00;101120.63;5093620;28;20091;-75
2023/04/25 00:29:39;;;;;;;16.30;5.93;;;;;;;5.03;100.00;101123.19;5100717;28;20039;-75
2023/04/25 00:32:04;;;;;;;18.23;5.90;;;;;;;5.04;100.00;101130.13;5096084;28;20056;-75
2023/04/25 00:34:30;;;;;;;19.77;6.15;;;;;;;5.01;100.00;101118.03;5098175;28;20020;-75
2023/04/25 00:36:55;;;;;;;14.10;5.88;;;;;;;4.97;100.00;101112.84;5091984;28;20584;-75
2023/04/25 00:39:20;;;;;;;14.52;5.55;;;;;;;4.93;100.00;101111.97;5078521;28;20036;-74
2023/04/25 00:41:46;;;;;;;19.92;6.78;;;;;;;4.85;100.00;101119.69;5092311;28;20047;-75
2023/04/25 00:44:11;;;;;;;16.08;6.25;;;;;;;4.74;100.00;101113.63;5091554;28;20030;-75
2023/04/25 00:46:38;;;;;;;19.35;6.30;;;;;;;4.67;100.00;101119.59;5095398;28;20024;-75
2023/04/25 00:49:04;;;;;;;22.40;6.80;;;;;;;4.57;100.00;101118.69;5092667;28;20024;-74
2023/04/25 00:51:30;;;;;;;17.30;6.57;;;;;;;4.53;100.00;101108.34;5091855;28;20023;-75
2023/04/25 00:53:56;;;;;;;18.67;5.90;;;;;;;4.51;100.00;101122.94;5092106;28;20378;-74
2023/04/25 00:56:21;;;;;;;20.02;6.07;;;;;;;4.50;100.00;101116.06;5099060;28;20035;-75
2023/04/25 00:58:47;;;;;;;15.88;6.40;;;;;;;4.53;100.00;101122.09;5091263;28;20028;-74
2023/04/25 01:01:13;;;;;;;20.48;6.50;;;;;;;4.59;100.00;101127.31;5092496;28;20070;-75
2023/04/25 01:03:42;;;;;;;16.38;6.85;;;;;;;4.61;100.00;101129.88;5094096;28;20645;-75
2023/04/25 01:06:09;;;;;;;16.13;6.72;;;;;;;4.61;100.00;101122.13;5100658;28;20520;-75
2023/04/25 01:08:35;;;;;;;17.23;6.22;;;;;;;4.58;100.00;101119.56;5097958;28;20024;-74
2023/04/25 01:11:00;;;;;;;16.83;6.28;;;;;;;4.52;100.00;101124.69;5074937;28;20151;-75
2023/04/25 01:13:26;;;;;;;18.73;6.03;;;;;;;4.41;100.00;101116.88;5082625;28;20131;-75
2023/04/25 01:15:51;;;;;;;15.65;5.80;;;;;;;4.34;100.00;101118.53;5087902;28;20085;-75
2023/04/25 01:18:18;;;;;;;15.07;6.38;;;;;;;4.22;100.00;101118.47;5091580;28;20042;-75
2023/04/25 01:20:45;;;;;;;22.45;6.00;;;;;;;4.16;100.00;101119.28;5090912;28;20046;-75
2023/04/25 01:23:11;;;;;;;12.73;6.32;;;;;;;4.04;100.00;101119.19;5097409;28;20080;-75
2023/04/25 01:25:37;;;;;;;18.55;6.20;;;;;;;4.07;100.00;101131.25;5081481;28;20016;-75
2023/04/25 01:28:02;;;;;;;18.08;6.07;;;;;;;3.95;100.00;101125.13;5094343;28;20055;-74
2023/04/25 01:30:28;;;;;;;18.95;6.80;;;;;;;3.94;100.00;101130.28;5101778;28;20125;-75
2023/04/25 01:32:57;;;;;;;15.50;6.50;;;;;;;3.92;100.00;101129.41;5095420;28;20020;-74
2023/04/25 01:35:23;;;;;;;19.20;7.00;;;;;;;3.92;100.00;101132.88;5095660;28;20476;-75
2023/04/25 01:37:49;;;;;;;16.90;6.30;;;;;;;3.93;100.00;101134.59;5093862;28;20119;-75
2023/04/25 01:40:15;;;;;;;15.15;5.55;;;;;;;3.87;100.00;101124.22;5094793;28;20131;-74
2023/04/25 01:42:42;;;;;;;16.42;6.28;;;;;;;3.91;100.00;101131.13;5081532;28;20024;-75
2023/04/25 01:45:08;;;;;;;16.75;5.80;;;;;;;3.84;100.00;101129.34;5095820;28;20036;-75
2023/04/25 01:47:37;;;;;;;15.60;5.90;;;;;;;3.83;100.00;101130.22;5095843;28;20016;-74
2023/04/25 01:50:04;;;;;;;17.42;6.25;;;;;;;3.84;100.00;101137.09;5107529;28;20133;-75
2023/04/25 01:52:29;;;;;;;17.70;6.50;;;;;;;3.79;100.00;101132.72;5098453;28;20098;-75
2023/04/25 01:54:57;;;;;;;19.75;6.78;;;;;;;3.78;100.00;101141.34;5094312;28;20539;-75
2023/04/25 01:57:22;;;;;;;18.25;6.13;;;;;;;3.77;100.00;101139.63;5095417;28;20402;-75
2023/04/25 01:59:48;;;;;;;19.60;6.32;;;;;;;3.81;100.00;101147.38;5112217;28;20034;-75
2023/04/25 02:02:13;;;;;;;21.95;6.70;;;;;;;3.85;100.00;101133.66;5101741;28;20146;-75
2023/04/25 02:04:38;;;;;;;17.10;6.05;;;;;;;3.90;100.00;101138.88;5095203;28;20035;-75
2023/04/25 02:07:03;;;;;;;20.42;7.07;;;;;;;3.97;100.00;101140.63;5095290;28;20487;-75
2023/04/25 02:09:29;;;;;;;14.30;6.93;;;;;;;4.08;100.00;101154.47;5106300;28;20028;-74
2023/04/25 02:11:54;;;;;;;18.00;6.20;;;;;;;4.09;100.00;101148.50;5100654;28;20052;-75
2023/04/25 02:14:19;;;;;;;15.93;6.45;;;;;;;4.18;100.00;101150.25;5095272;28;20043;-75
2023/04/25 02:16:46;;;;;;;16.73;6.97;;;;;;;4.21;100.00;101150.28;5079852;28;20028;-75
2023/04/25 02:19:11;;;;;;;18.63;6.40;;;;;;;4.25;100.00;101152.06;5096443;28;20024;-75
2023/04/25 02:21:37;;;;;;;17.65;6.75;;;;;;;4.26;100.00;101152.91;5094996;28;20023;-76
2023/04/25 02:24:03;;;;;;;18.83;7.18;;;;;;;4.24;100.00;101155.47;5094050;28;20052;-75
2023/04/25 02:26:29;;;;;;;17.30;6.78;;;;;;;4.17;100.00;101156.28;5102553;28;20379;-75
2023/04/25 02:28:56;;;;;;;22.70;7.00;;;;;;;4.11;100.00;101159.66;5098369;28;20027;-75
2023/04/25 02:31:21;;;;;;;14.93;5.97;;;;;;;4.02;100.00;101161.31;5094339;28;20107;-75
2023/04/25 02:33:47;;;;;;;16.50;6.93;;;;;;;3.94;100.00;101156.94;5094653;28;20099;-75
2023/04/25 02:36:13;;;;;;;19.00;7.20;;;;;;;3.88;100.00;101153.44;5093005;28;20030;-75
2023/04/25 02:38:38;;;;;;;20.63;6.60;;;;;;;3.79;100.00;101151.66;5096323;28;20099;-75
2023/04/25 02:41:04;;;;;;;18.65;7.00;;;;;;;3.78;100.00;101164.53;5094897;28;20455;-75
2023/04/25 02:43:29;;;;;;;18.88;6.75;;;;;;;3.71;100.00;101159.31;5093964;28;20027;-75
2023/04/25 02:45:55;;;;;;;19.08;6.65;;;;;;;3.65;100.00;101159.25;5093550;28;20471;-75
2023/04/25 02:48:20;;;;;;;19.58;6.93;;;;;;;3.66;100.00;101162.69;5096512;28;20081;-75
2023/04/25 02:50:45;;;;;;;16.02;6.78;;;;;;;3.63;100.00;101166.13;5093317;28;20061;-75
2023/04/25 02:53:11;;;;;;;18.60;6.65;;;;;;;3.59;100.00;101159.19;5094568;28;20040;-75
2023/04/25 02:55:36;;;;;;;21.38;7.55;;;;;;;3.59;100.00;101158.34;5094422;28;20052;-75
2023/04/25 02:58:01;;;;;;;15.35;7.28;;;;;;;3.58;100.00;101165.22;5099020;28;20417;-75
2023/04/25 03:00:27;;;;;;;21.50;7.18;;;;;;;3.57;100.00;101170.38;5103972;28;20027;-75
2023/04/25 03:02:52;;;;;;;18.67;7.00;;;;;;;3.57;100.00;101162.63;5099327;28;20028;-75
2023/04/25 03:05:17;;;;;;;20.63;7.15;;;;;;;3.56;100.00;101159.16;5104376;28;20035;-75
2023/04/25 03:07:44;;;;;;;18.90;7.30;;;;;;;3.56;100.00;101160.88;5101818;28;20024;-75
2023/04/25 03:10:10;;;;;;;21.95;6.65;;;;;;;3.58;100.00;101169.50;5094320;28;20020;-75
2023/04/25 03:12:35;;;;;;;18.40;7.22;;;;;;;3.56;100.00;101171.19;5092733;28;20506;-75
2023/04/25 03:15:01;;;;;;;16.70;6.75;;;;;;;3.59;100.00;101168.66;5088073;28;20036;-75
2023/04/25 03:17:26;;;;;;;19.00;6.10;;;;;;;3.65;100.00;101173.88;5083691;28;20032;-75
2023/04/25 03:19:52;;;;;;;22.85;8.05;;;;;;;3.68;100.00;101169.59;5092761;28;20072;-75
2023/04/25 03:22:17;;;;;;;17.70;6.85;;;;;;;3.72;100.00;101167.91;5095404;28;20045;-75
2023/04/25 03:24:42;;;;;;;23.40;7.22;;;;;;;3.72;100.00;101170.50;5097109;28;20035;-75
2023/04/25 03:27:08;;;;;;;18.92;7.70;;;;;;;3.76;100.00;101169.69;5092292;28;20054;-75
2023/04/25 03:29:33;;;;;;;20.15;7.97;;;;;;;3.77;100.00;101166.25;5093883;28;20494;-75
2023/04/25 03:31:58;;;;;;;20.23;8.05;;;;;;;3.83;100.00;101179.22;5091219;28;20368;-75
2023/04/25 03:34:24;;;;;;;24.65;8.35;;;;;;;3.84;100.00;101168.03;5101826;28;20067;-75
2023/04/25 03:36:49;;;;;;;23.02;8.38;;;;;;;3.87;100.00;101168.06;5094012;28;20044;-75
2023/04/25 03:39:15;;;;;;;24.75;7.57;;;;;;;3.87;100.00;101162.91;5104980;28;20055;-75
2023/04/25 03:41:40;;;;;;;26.20;7.95;;;;;;;3.95;100.00;101169.00;5092534;28;20073;-75
2023/04/25 03:44:05;;;;;;;21.63;7.80;;;;;;;3.96;100.00;101168.16;5093563;28;20017;-75
2023/04/25 03:46:31;;;;;;;19.63;7.93;;;;;;;3.97;100.00;101164.72;5091140;28;20024;-75
2023/04/25 03:48:56;;;;;;;20.02;7.70;;;;;;;3.92;100.00;101153.50;5092107;28;20038;-75
2023/04/25 03:51:21;;;;;;;22.23;7.82;;;;;;;4.01;100.00;101168.19;5093224;28;20016;-75
2023/04/25 03:53:47;;;;;;;18.10;7.15;;;;;;;4.03;100.00;101168.22;5092335;28;20027;-75
2023/04/25 03:56:12;;;;;;;19.13;7.13;;;;;;;4.04;100.00;101172.50;5093325;28;20028;-75
2023/04/25 03:58:38;;;;;;;14.43;6.78;;;;;;;4.05;100.00;101174.22;5095425;28;20055;-75
2023/04/25 04:01:07;;;;;;;20.17;6.72;;;;;;;4.03;100.00;101170.78;5092645;28;20129;-75
2023/04/25 04:03:33;;;;;;;20.20;7.38;;;;;;;4.07;100.00;101177.69;5092999;28;20429;-75
2023/04/25 04:05:59;;;;;;;17.83;7.03;;;;;;;4.08;100.00;101182.00;5092518;28;20039;-75
2023/04/25 04:08:24;;;;;;;18.90;6.50;;;;;;;4.05;100.00;101181.97;5096635;28;20356;-75
2023/04/25 04:10:49;;;;;;;17.88;7.28;;;;;;;4.07;100.00;101188.88;5102555;28;20038;-75
2023/04/25 04:13:15;;;;;;;23.27;7.35;;;;;;;4.09;100.00;101191.50;5100161;28;20054;-76
2023/04/25 04:15:41;;;;;;;20.65;7.18;;;;;;;4.09;100.00;101194.94;5080459;28;20139;-75
2023/04/25 04:18:06;;;;;;;21.77;7.53;;;;;;;4.12;100.00;101194.97;5094896;28;20115;-75
2023/04/25 04:20:32;;;;;;;17.25;6.65;;;;;;;4.13;100.00;101199.25;5092824;28;20016;-75
2023/04/25 04:22:57;;;;;;;17.85;7.10;;;;;;;4.15;100.00;101204.41;5093939;28;20118;-75
2023/04/25 04:25:24;;;;;;;18.88;7.35;;;;;;;4.17;100.00;101198.44;5092907;28;20038;-75
2023/04/25 04:27:51;;;;;;;23.92;7.35;;;;;;;4.19;100.00;101209.63;5102688;28;20023;-75
2023/04/25 04:30:17;;;;;;;24.70;6.95;;;;;;;4.21;100.00;101201.91;5092737;28;20058;-75
2023/04/25 04:32:43;;;;;;;24.55;7.38;;;;;;;4.22;100.00;101203.66;5092358;28;20059;-75
2023/04/25 04:35:08;;;;;;;21.77;6.80;;;;;;;4.27;100.00;101212.28;5092356;28;20020;-75
2023/04/25 04:37:34;;;;;;;22.13;7.20;;;;;;;4.29;100.00;101205.41;5099623;28;20080;-75
2023/04/25 04:40:04;;;;;;;20.85;7.70;;;;;;;4.24;100.00;101196.75;5097116;28;20020;-75
2023/04/25 04:42:30;;;;;;;15.82;6.60;;;;;;;4.33;100.00;101212.31;5092730;28;20107;-75
2023/04/25 04:44:55;;;;;;;23.15;7.38;;;;;;;4.29;100.00;101199.41;5091810;28;20103;-75
2023/04/25 04:47:20;;;;;;;20.77;7.70;;;;;;;4.36;100.00;101219.25;5095092;28;20022;-75
2023/04/25 04:49:46;;;;;;;27.15;7.50;;;;;;;4.30;100.00;101201.97;5100754;28;20352;-75
2023/04/25 04:52:11;;;;;;;17.73;6.93;;;;;;;4.38;100.00;101215.81;5091793;28;20028;-75
2023/04/25 04:54:37;;;;;;;20.17;7.63;;;;;;;4.38;100.00;101221.00;5095803;28;20055;-75
2023/04/25 04:57:02;;;;;;;19.25;7.30;;;;;;;4.34;100.00;101226.97;5099648;28;20031;-75
2023/04/25 04:59:27;;;;;;;22.83;7.45;;;;;;;4.25;100.00;101229.47;5094087;28;20019;-75
2023/04/25 05:01:52;;;;;;;24.50;7.57;;;;;;;4.19;100.00;101232.00;5096109;28;20028;-75
2023/04/25 05:04:18;;;;;;;20.00;7.10;;;;;;;4.16;100.00;101231.97;5100808;28;20111;-75
2023/04/25 05:06:44;;;;;;;25.77;7.57;;;;;;;4.21;100.00;101243.19;5095603;28;20137;-75
2023/04/25 05:09:09;;;;;;;20.52;7.43;;;;;;;4.30;100.00;101248.44;5095998;28;20031;-75
2023/04/25 05:11:35;;;;;;;20.98;7.35;;;;;;;4.37;100.00;101242.47;5095570;28;20036;-75
2023/04/25 05:14:00;;;;;;;19.13;7.40;;;;;;;4.46;100.00;101245.13;5101135;28;20068;-75
2023/04/25 05:16:25;;;;;;;27.13;8.93;;;;;;;4.56;100.00;101245.22;5081682;28;20039;-75
2023/04/25 05:18:51;;;;;;;21.42;7.97;;;;;;;4.62;100.00;101260.75;5095308;28;20031;-75
2023/04/25 05:21:16;;;;;;;22.58;7.18;;;;;;;4.64;100.00;101243.53;5095402;28;20886;-75
2023/04/25 05:23:41;;;;;;;19.02;8.10;;;;;;;4.78;100.00;101262.59;5096704;28;20843;-75
2023/04/25 05:26:13;;;;;;;26.15;8.35;;;;;;;4.84;100.00;101272.97;5102603;28;20031;-75
2023/04/25 05:28:39;;;;;;;23.30;7.55;;;;;;;4.89;100.00;101267.81;5100152;28;20042;-75
2023/04/25 05:31:04;;;;;;;17.75;7.53;;;;;;;4.99;100.00;101266.16;5096004;28;20111;-75
2023/04/25 05:33:30;;;;;;;23.85;8.25;;;;;;;5.04;100.00;101259.31;5096922;28;20485;-75
2023/04/25 05:35:55;;;;;;;19.63;8.32;;;;;;;5.14;100.00;101261.09;5108673;28;20035;-75
2023/04/25 05:38:20;;;;;;;20.20;8.20;;;;;;;5.18;100.00;101260.25;5100481;28;20039;-75
2023/04/25 05:40:45;;;;;;;18.83;7.28;;;;;;;5.23;100.00;101261.16;5094630;28;20047;-75
2023/04/25 05:43:11;;;;;;;19.25;7.65;;;;;;;5.27;100.00;101264.63;5095321;28;20054;-75
2023/04/25 05:45:36;;;;;;;18.00;8.07;;;;;;;5.30;100.00;101273.25;5109418;28;20020;-74
2023/04/25 05:48:01;;;;;;;21.20;7.50;;;;;;;5.39;100.00;101275.88;5094468;28;20028;-75
2023/04/25 05:50:27;;;;;;;25.23;7.85;;;;;;;5.43;100.00;101274.19;5104545;28;20016;-75
2023/04/25 05:52:52;;;;;;;21.02;8.82;;;;;;;5.52;100.00;101271.59;5095536;28;20067;-75
2023/04/25 05:55:17;;;;;;;23.45;7.20;;;;;;;5.63;100.00;101284.59;5108179;28;20363;-75
2023/04/25 05:57:44;;;;;;;23.83;7.43;;;;;;;5.74;100.00;101288.06;5095176;28;20134;-75
2023/04/25 06:00:14;;;;;;;23.90;7.78;;;;;;;5.82;100.00;101286.41;5094427;28;20016;-75
2023/04/25 06:02:40;;;;;;;19.55;8.02;;;;;;;5.87;100.00;101286.41;5095125;28;20459;-75
2023/04/25 06:05:06;;;;;;;21.58;7.35;;;;;;;5.93;100.00;101301.13;5098082;28;20062;-75
2023/04/25 06:07:31;;;;;;;19.63;7.50;;;;;;;5.99;100.00;101296.81;5094330;28;20055;-75
2023/04/25 06:09:57;;;;;;;22.77;7.40;;;;;;;6.05;100.00;101293.41;5094792;28;20250;-75
2023/04/25 06:12:22;;;;;;;17.38;6.13;;;;;;;6.14;100.00;101305.47;5104207;28;20069;-75
2023/04/25 06:14:47;;;;;;;19.95;7.28;;;;;;;6.18;100.00;101302.91;5093199;28;20408;-75
2023/04/25 06:17:13;;;;;;;16.05;6.20;;;;;;;6.16;100.00;101314.97;5084406;28;20110;-75
2023/04/25 06:19:38;;;;;;;18.88;6.72;;;;;;;6.16;100.00;101304.63;5093046;28;20031;-75
2023/04/25 06:22:03;;;;;;;21.65;6.75;;;;;;;6.08;100.00;101301.13;5094227;28;20058;-75
2023/04/25 06:24:29;;;;;;;16.88;6.45;;;;;;;6.02;100.00;101314.09;5094313;28;20067;-75
2023/04/25 06:26:54;;;;;;;20.67;5.60;;;;;;;5.98;100.00;101318.38;5094471;28;20054;-75
2023/04/25 06:29:20;;;;;;;18.95;5.90;;;;;;;5.95;100.00;101315.81;5092977;28;20059;-75
2023/04/25 06:31:45;;;;;;;13.70;5.68;;;;;;;5.96;100.00;101311.47;5095003;28;20024;-75
2023/04/25 06:34:11;;;;;;;16.85;5.38;;;;;;;6.04;100.00;101317.53;5095896;28;20027;-75
2023/04/25 06:36:36;;;;;;;16.40;5.25;;;;;;;6.09;100.00;101316.69;5096859;28;20055;-75
2023/04/25 06:39:01;;;;;;;17.42;4.43;;;;;;;6.12;100.00;101318.44;5096075;28;20020;-75
2023/04/25 06:41:27;;;;;;;14.48;4.25;;;;;;;6.10;100.00;101310.66;5094760;28;20028;-75
2023/04/25 06:43:52;;;;;;;14.77;3.85;;;;;;;6.17;100.00;101321.88;5093607;28;20371;-75
2023/04/25 06:46:18;;;;;;;7.47;2.78;;;;;;;6.18;100.00;101333.97;5094917;28;20040;-75
2023/04/25 06:48:43;;;;;;;13.02;3.25;;;;;;;6.19;100.00;101340.88;5100804;28;20016;-74
2023/04/25 06:51:08;;;;;;;11.38;2.92;;;;;;;6.19;100.00;101340.88;5092802;28;20051;-75
2023/04/25 06:53:33;;;;;;;10.68;3.03;;;;;;;6.16;100.00;101334.84;5092183;28;20479;-75
2023/04/25 06:55:59;;;;;;;10.23;3.00;;;;;;;6.21;100.00;101339.16;5094185;28;20039;-75
2023/04/25 06:58:25;;;;;;;9.43;2.70;;;;;;;6.26;100.00;101342.63;5093554;28;20020;-75
2023/04/25 07:00:51;;;;;;;13.93;2.90;;;;;;;6.32;100.00;101342.63;5106964;28;20031;-75
2023/04/25 07:03:16;;;;;;;9.55;3.53;;;;;;;6.38;100.00;101346.97;5094037;28;20112;-75
2023/04/25 07:05:42;;;;;;;13.45;3.00;;;;;;;6.41;100.00;101343.50;5093230;28;20020;-75
2023/04/25 07:08:07;;;;;;;11.50;3.47;;;;;;;6.44;100.00;101341.81;5093050;28;20103;-75
2023/04/25 07:10:32;;;;;;;11.35;3.15;;;;;;;6.48;100.00;101338.34;5096337;28;20085;-75
2023/04/25 07:12:58;;;;;;;7.70;3.20;;;;;;;6.53;100.00;101341.78;5093355;28;20040;-76
2023/04/25 07:15:23;;;;;;;11.70;3.45;;;;;;;6.60;100.00;101349.56;5085404;28;20089;-75
2023/04/25 07:17:48;;;;;;;11.15;2.63;;;;;;;6.67;99.19;101351.31;5086839;28;20137;-75
2023/04/25 07:20:14;;;;;;;11.00;2.90;;;;;;;6.73;97.15;101354.75;5092004;28;20434;-75
2023/04/25 07:22:39;;;;;;;9.85;2.67;;;;;;;6.80;99.83;101360.81;5092333;28;20024;-75
2023/04/25 07:25:05;;;;;;;11.63;3.25;;;;;;;6.88;98.46;101358.25;5092082;28;20137;-75
2023/04/25 07:27:31;;;;;;;8.55;2.65;;;;;;;7.01;97.87;101350.44;5094022;28;20028;-75
2023/04/25 07:29:57;;;;;;;12.30;2.70;;;;;;;7.12;97.74;101357.34;5093438;28;20093;-75
2023/04/25 07:32:22;;;;;;;8.80;2.97;;;;;;;7.25;94.55;101359.06;5091990;28;20028;-75
2023/04/25 07:34:47;;;;;;;12.40;2.83;;;;;;;7.33;90.11;101364.25;5090928;28;20107;-75
2023/04/25 07:37:13;;;;;;;8.10;2.88;;;;;;;7.30;89.30;101367.72;5090803;28;20107;-75
2023/04/25 07:39:39;;;;;;;10.68;2.40;;;;;;;7.17;93.33;101377.22;5100453;28;20459;-75
2023/04/25 07:42:07;;;;;;;11.13;2.25;;;;;;;7.05;93.73;101372.06;5093605;28;20099;-75
2023/04/25 07:44:38;;;;;;;8.23;2.40;;;;;;;7.00;91.30;101385.03;5092238;28;20028;-75
2023/04/25 07:47:04;;;;;;;9.93;2.67;;;;;;;7.03;93.07;101390.22;5090548;28;20074;-75
2023/04/25 07:49:29;;;;;;;10.05;2.30;;;;;;;6.91;86.97;101379.84;5100118;28;20024;-76
2023/04/25 07:51:54;;;;;;;9.25;2.25;;;;;;;6.99;91.87;101393.66;5099267;28;20424;-75
2023/04/25 07:54:20;;;;;;;9.25;2.70;;;;;;;6.98;89.15;101391.94;5092609;28;20032;-75
2023/04/25 07:56:45;;;;;;;12.10;2.50;;;;;;;7.01;88.19;101391.94;5092834;28;20035;-75
2023/04/25 07:59:10;;;;;;;9.98;3.17;;;;;;;7.21;87.34;101394.50;5092066;28;20024;-74
2023/04/25 08:01:36;;;;;;;9.32;2.42;;;;;;;7.32;86.10;101402.28;5092516;28;20126;-74
2023/04/25 08:04:01;;;;;;;6.05;1.83;;;;;;;7.41;84.92;101404.84;5097999;28;20031;-75
2023/04/25 08:06:27;;;;;;;9.10;2.17;;;;;;;7.55;82.12;101407.41;5093162;28;20500;-74
2023/04/25 08:08:52;;;;;;;8.50;2.45;;;;;;;7.90;82.35;101406.47;5090983;28;20025;-74
2023/04/25 08:11:17;;;;;;;8.38;2.20;;;;;;;8.07;77.80;101412.47;5091934;28;20032;-74
2023/04/25 08:13:43;;;;;;;9.38;2.13;;;;;;;8.27;81.84;101406.31;5091436;28;20040;-74
2023/04/25 08:16:08;;;;;;;12.43;2.50;;;;;;;8.51;81.90;101408.84;5090387;28;20390;-74
2023/04/25 08:18:33;;;;;;;7.97;2.42;;;;;;;8.50;79.57;101412.31;5096030;28;20111;-74
2023/04/25 08:20:58;;;;;;;8.23;2.13;;;;;;;8.48;83.20;101420.97;5092026;28;20032;-74
2023/04/25 08:23:24;;;;;;;9.90;2.45;;;;;;;8.44;80.27;101422.75;5090714;28;20027;-75
2023/04/25 08:25:49;;;;;;;8.88;2.30;;;;;;;8.51;80.94;101432.22;5092632;28;20069;-74
2023/04/25 08:28:15;;;;;;;8.05;3.28;;;;;;;8.57;80.83;101427.00;5098841;28;20475;-74
2023/04/25 08:30:40;;;;;;;7.65;2.75;;;;;;;8.70;79.47;101430.38;5088994;28;20150;-74
2023/04/25 08:33:05;;;;;;;12.85;2.50;;;;;;;8.89;78.12;101438.91;5092205;28;20572;-74
2023/04/25 08:35:32;;;;;;;12.45;2.67;;;;;;;9.14;78.23;101439.59;5090753;28;20032;-74
2023/04/25 08:37:58;;;;;;;8.23;2.40;;;;;;;9.33;75.28;101435.97;5097015;28;20047;-74
2023/04/25 08:40:28;;;;;;;9.85;2.58;;;;;;;9.49;73.22;101447.09;5093673;28;20460;-74
2023/04/25 08:42:55;;;;;;;7.22;2.08;;;;;;;9.69;73.56;101439.09;5096121;28;20044;-74
2023/04/25 08:45:20;;;;;;;14.32;2.60;;;;;;;9.82;72.95;101443.28;5094970;28;20027;-74
2023/04/25 08:47:48;;;;;;;10.27;2.67;;;;;;;10.11;72.71;101449.06;5096519;28;20028;-75
2023/04/25 08:50:14;;;;;;;12.35;3.25;;;;;;;10.28;69.39;101448.00;5090339;28;20106;-75
2023/04/25 08:52:45;;;;;;;7.68;2.70;;;;;;;10.45;66.03;101458.19;5089749;28;20146;-75
2023/04/25 08:55:12;;;;;;;4.88;1.92;;;;;;;10.47;65.40;101455.59;5089397;28;20035;-74
2023/04/25 08:57:39;;;;;;;6.82;2.35;;;;;;;10.49;65.85;101459.88;5089454;28;20073;-74
2023/04/25 09:00:05;;;;;;;6.45;2.08;;;;;;;10.58;64.90;101469.31;5087945;28;20020;-75
2023/04/25 09:02:31;;;;;;;9.15;1.80;;;;;;;10.60;67.47;101474.53;5091872;28;20375;-75
2023/04/25 09:04:57;;;;;;;6.93;2.22;;;;;;;10.54;64.96;101481.53;5087815;28;20032;-75
2023/04/25 09:07:22;;;;;;;6.20;1.48;;;;;;;10.47;62.28;101486.88;5086995;28;20027;-75
2023/04/25 09:09:48;;;;;;;6.43;2.13;;;;;;;10.48;61.43;101497.25;5089346;28;20028;-75
2023/04/25 09:12:13;;;;;;;12.80;2.35;;;;;;;10.51;62.39;101504.19;5090980;28;20113;-76
2023/04/25 09:14:38;;;;;;;12.07;2.38;;;;;;;10.59;66.03;101493.66;5089785;28;20505;-75
2023/04/25 09:17:07;;;;;;;7.22;2.05;;;;;;;10.64;64.57;101500.53;5092217;28;20020;-75
2023/04/25 09:19:39;;;;;;;6.13;1.95;;;;;;;10.70;63.13;101503.06;5087530;28;20043;-75
2023/04/25 09:22:05;;;;;;;7.30;1.63;;;;;;;10.66;65.91;101510.94;5080260;28;20040;-75
2023/04/25 09:24:41;;;;;;;8.23;1.83;;;;;;;10.54;60.02;101510.22;5091462;28;20031;-75
2023/04/25 09:27:08;;;;;;;6.07;1.63;;;;;;;10.49;57.65;101511.16;5086999;28;20027;-76
2023/04/25 09:29:36;;;;;;;6.07;1.65;;;;;;;10.57;57.38;101517.16;5099036;28;20047;-75
2023/04/25 09:32:20;;;;;;;7.03;2.35;;;;;;;10.91;59.60;101527.13;5094834;28;20120;-76
2023/04/25 09:34:53;;;;;;;6.90;1.90;;;;;;;10.88;58.90;101507.16;5087442;28;20077;-75
2023/04/25 09:37:29;;;;;;;7.13;1.75;;;;;;;10.88;58.29;101527.16;5083897;28;20024;-76
2023/04/25 09:40:01;;;;;;;10.50;2.10;;;;;;;10.81;58.50;101533.34;5086058;28;20470;-76
2023/04/25 09:42:28;;;;;;;5.25;2.05;;;;;;;10.62;58.35;101522.28;5087885;28;20467;-76
2023/04/25 09:44:55;;;;;;;8.38;1.80;;;;;;;10.59;58.69;101517.97;5085374;28;20364;-76
2023/04/25 09:47:23;;;;;;;7.72;1.77;;;;;;;10.72;57.91;101523.91;5094808;28;20024;-75
2023/04/25 09:49:50;;;;;;;7.10;1.50;;;;;;;10.95;57.41;101521.88;5090392;28;20062;-76
2023/04/25 09:52:18;;;;;;;7.50;2.00;;;;;;;11.13;58.40;101525.06;5094053;28;20054;-76
2023/04/25 09:54:47;;;;;;;5.97;2.10;;;;;;;11.49;57.47;101523.66;5094196;28;20474;-76
2023/04/25 09:57:17;;;;;;;8.88;2.08;;;;;;;11.68;57.87;101519.84;5095302;28;20028;-75
2023/04/25 09:59:45;;;;;;;9.02;2.50;;;;;;;11.88;56.56;101519.50;5092230;28;20024;-75
2023/04/25 10:02:12;;;;;;;7.05;2.05;;;;;;;11.61;55.57;101513.00;5091087;28;20440;-75
2023/04/25 10:04:38;;;;;;;6.68;2.15;;;;;;;11.53;58.19;101529.69;5082154;28;20024;-75
2023/04/25 10:07:06;;;;;;;7.90;2.05;;;;;;;11.27;56.97;101528.34;5091952;28;20023;-75
2023/04/25 10:09:36;;;;;;;7.97;1.88;;;;;;;10.83;54.21;101537.69;5084214;28;20387;-74
2023/04/25 10:12:03;;;;;;;6.80;1.80;;;;;;;10.74;56.87;101532.56;5094751;28;20125;-75
2023/04/25 10:14:30;;;;;;;5.47;1.88;;;;;;;11.10;54.63;101532.94;5086230;28;20016;-75
2023/04/25 10:16:57;;;;;;;4.85;1.70;;;;;;;11.31;51.63;101518.69;5088887;28;20032;-75
2023/04/25 10:19:23;;;;;;;3.90;1.23;;;;;;;11.17;49.79;101526.75;5095346;28;20024;-75
2023/04/25 10:21:52;;;;;;;6.75;1.70;;;;;;;11.00;51.84;101527.00;5088153;28;20440;-75
2023/04/25 10:24:19;;;;;;;5.25;1.85;;;;;;;11.17;51.83;101526.75;5085877;28;20031;-75
2023/04/25 10:26:46;;;;;;;4.70;1.45;;;;;;;11.30;51.01;101528.28;5094793;28;20016;-75
2023/04/25 10:29:12;;;;;;;3.90;1.60;;;;;;;11.60;50.76;101526.91;5094251;28;20536;-75
2023/04/25 10:31:46;;;;;;;5.68;1.77;;;;;;;12.16;51.10;101516.38;5094759;28;20063;-76
2023/04/25 10:34:11;;;;;;;6.18;1.75;;;;;;;12.88;52.21;101514.88;5094240;28;20027;-76
2023/04/25 10:36:37;;;;;;;5.30;1.20;;;;;;;13.41;45.22;101518.06;5097185;28;20023;-75
2023/04/25 10:39:09;;;;;;;3.38;1.50;;;;;;;13.54;47.35;101529.09;5094328;28;20353;-75
2023/04/25 10:41:48;;;;;;;4.10;1.35;;;;;;;13.27;45.07;101533.22;5098081;28;20516;-75
2023/04/25 10:44:13;;;;;;;6.63;1.42;;;;;;;12.95;44.67;101534.81;5082144;28;20024;-75
2023/04/25 10:46:39;;;;;;;3.22;1.42;;;;;;;12.71;47.76;101536.19;5094488;28;20030;-75
2023/04/25 10:49:04;;;;;;;4.32;1.50;;;;;;;12.57;48.54;101519.94;5093596;28;20028;-74
2023/04/25 10:51:34;;;;;;;5.82;1.60;;;;;;;12.54;48.63;101527.84;5100061;28;20014;-75
2023/04/25 10:54:09;;;;;;;4.82;1.50;;;;;;;12.29;48.39;101523.09;5094367;28;20476;-75
2023/04/25 10:56:40;;;;;;;11.05;2.08;;;;;;;12.18;51.98;101536.38;5092113;28;20024;-75
2023/04/25 10:59:09;;;;;;;6.28;1.90;;;;;;;12.45;53.58;101528.00;5094402;28;20024;-75
2023/04/25 11:01:40;;;;;;;5.05;1.95;;;;;;;12.90;48.72;101539.25;5098078;28;20016;-73
2023/04/25 11:04:05;;;;;;;5.50;1.70;;;;;;;13.41;46.98;101532.91;5095022;28;20138;-75
2023/04/25 11:07:05;;;;;;;6.07;1.65;;;;;;;13.33;47.35;101536.56;5101926;28;20055;-75
2023/04/25 11:09:32;;;;;;;5.53;1.80;;;;;;;12.54;47.19;101533.91;5090113;28;20039;-75
2023/04/25 11:11:59;;;;;;;4.10;1.50;;;;;;;11.90;48.52;101541.25;5091471;28;20550;-76
2023/04/25 11:14:25;;;;;;;3.20;1.90;;;;;;;11.28;53.12;101542.25;5093507;28;20028;-75
2023/04/25 11:16:58;;;;;;;5.97;2.25;;;;;;;10.68;56.65;101546.53;5079493;28;20020;-75